Time;durP1;ratioP1;P1;durP2;ratioP2;P2;SDS_P1;SDS_P2;PMS_P1;PMS_P2;Temp;Humidity;BMP_temperature;BMP_pressure;BME280_temperature;BME280_humidity;BME280_pressure;Samples;Min_cycle;Max_cycle;Signal;HPM_P1;HPM_P2
2023/10/24 00:00:30;;;;;;;0.00;0.00;;;;;;;19.45;64.76;100257.22;5073322;28;20024;-66
2023/10/24 00:02:56;;;;;;;0.08;0.08;;;;;;;20.86;60.18;100250.81;5071365;28;20035;-67
2023/10/24 00:05:21;;;;;;;0.10;0.10;;;;;;;20.63;60.58;100250.38;5074635;28;20468;-67
2023/10/24 00:07:47;;;;;;;0.00;0.00;;;;;;;20.43;60.52;100244.50;5092389;28;20034;-66
2023/10/24 00:10:13;;;;;;;0.00;0.00;;;;;;;20.88;60.15;100243.59;5104111;28;20281;-67
2023/10/24 00:12:38;;;;;;;0.00;0.00;;;;;;;20.32;59.95;100237.19;5072952;28;20032;-66
2023/10/24 00:15:04;;;;;;;0.10;0.10;;;;;;;21.07;59.36;100233.50;5090622;28;20035;-66
2023/10/24 00:17:30;;;;;;;0.10;0.10;;;;;;;20.84;59.35;100227.84;5105302;28;20085;-66
2023/10/24 00:19:55;;;;;;;0.00;0.00;;;;;;;20.48;60.66;100230.94;5089788;28;20671;-66
2023/10/24 00:22:20;;;;;;;0.00;0.00;;;;;;;20.33;60.87;100219.47;5072032;28;20115;-66
2023/10/24 00:24:46;;;;;;;0.00;0.00;;;;;;;20.39;60.66;100221.75;5072023;28;20036;-66
2023/10/24 00:27:11;;;;;;;0.00;0.00;;;;;;;20.44;59.98;100214.38;5096337;28;20600;-66
2023/10/24 00:29:37;;;;;;;1.45;1.20;;;;;;;20.53;60.23;100220.91;5103418;28;20027;-66
2023/10/24 00:32:03;;;;;;;0.20;0.17;;;;;;;20.96;59.01;100210.28;5100972;28;20046;-66
2023/10/24 00:34:28;;;;;;;0.08;0.08;;;;;;;21.14;58.18;100210.94;5096131;28;20028;-66
2023/10/24 00:36:53;;;;;;;0.22;0.22;;;;;;;21.16;58.37;100214.31;5072150;28;20134;-65
2023/10/24 00:39:19;;;;;;;0.00;0.00;;;;;;;21.26;57.28;100216.41;5072287;28;20098;-66
2023/10/24 00:41:44;;;;;;;0.00;0.00;;;;;;;20.43;61.22;100217.97;5073164;28;20411;-66
2023/10/24 00:44:10;;;;;;;0.00;0.00;;;;;;;20.84;58.68;100214.56;5091805;28;20032;-66
2023/10/24 00:46:38;;;;;;;0.00;0.00;;;;;;;20.42;60.25;100210.09;5110365;28;20112;-66
2023/10/24 00:49:04;;;;;;;0.00;0.00;;;;;;;20.06;63.13;100206.03;5092172;28;20062;-66
2023/10/24 00:51:30;;;;;;;0.10;0.10;;;;;;;20.35;61.95;100209.63;5103716;28;20048;-66
2023/10/24 00:53:57;;;;;;;0.45;0.45;;;;;;;20.36;61.46;100206.03;5074664;28;20453;-66
2023/10/24 00:56:23;;;;;;;0.00;0.00;;;;;;;19.89;64.30;100215.00;5105298;28;20036;-66
2023/10/24 00:58:50;;;;;;;0.00;0.00;;;;;;;19.28;67.71;100212.28;5108543;28;20038;-66
2023/10/24 01:01:16;;;;;;;0.00;0.00;;;;;;;19.33;67.25;100210.22;5074069;28;20027;-66
2023/10/24 01:03:43;;;;;;;0.20;0.20;;;;;;;19.70;64.69;100210.78;5106930;28;20077;-66
2023/10/24 01:06:09;;;;;;;0.20;0.20;;;;;;;19.35;66.60;100213.63;5091141;28;20065;-66
2023/10/24 01:08:36;;;;;;;2.42;0.60;;;;;;;19.85;64.37;100210.84;5092945;28;20055;-66
2023/10/24 01:11:02;;;;;;;0.38;0.38;;;;;;;19.99;64.55;100213.53;5094264;28;20024;-67
2023/10/24 01:13:27;;;;;;;0.00;0.00;;;;;;;19.53;67.25;100205.59;5095261;28;20078;-66
2023/10/24 01:15:53;;;;;;;0.00;0.00;;;;;;;20.48;63.39;100209.72;5098089;28;20051;-66
2023/10/24 01:18:18;;;;;;;0.88;0.88;;;;;;;19.41;67.83;100207.13;5075761;28;20024;-66
2023/10/24 01:20:44;;;;;;;0.03;0.03;;;;;;;19.43;67.09;100203.44;5093317;28;20038;-66
2023/10/24 01:23:09;;;;;;;1.20;0.98;;;;;;;19.47;66.81;100207.63;5075192;28;20016;-67
2023/10/24 01:25:40;;;;;;;0.00;0.00;;;;;;;19.76;65.80;100202.44;5093705;28;20054;-67
2023/10/24 01:28:06;;;;;;;0.10;0.10;;;;;;;19.86;65.58;100201.94;5091740;28;20023;-66
2023/10/24 01:30:33;;;;;;;1.50;1.33;;;;;;;18.71;70.72;100208.28;5093874;28;20438;-66
2023/10/24 01:32:59;;;;;;;0.40;0.40;;;;;;;19.62;66.31;100205.91;5075216;28;20035;-66
2023/10/24 01:35:24;;;;;;;0.08;0.08;;;;;;;19.59;66.91;100197.25;5113326;28;20036;-66
2023/10/24 01:37:49;;;;;;;0.00;0.00;;;;;;;19.16;66.14;100203.22;5094811;28;20027;-67
2023/10/24 01:40:15;;;;;;;0.43;0.43;;;;;;;19.26;67.68;100200.88;5113145;28;20041;-66
2023/10/24 01:42:40;;;;;;;0.00;0.00;;;;;;;19.53;64.71;100200.28;5079912;28;20079;-66
2023/10/24 01:45:07;;;;;;;0.00;0.00;;;;;;;19.17;67.17;100194.31;5075308;28;20031;-66
2023/10/24 01:47:33;;;;;;;6.32;3.97;;;;;;;18.34;72.38;100194.38;5095936;28;20475;-67
2023/10/24 01:49:58;;;;;;;0.40;0.40;;;;;;;19.44;68.89;100191.91;5092507;28;20032;-66
2023/10/24 01:52:23;;;;;;;1.90;0.57;;;;;;;18.64;71.13;100196.28;5088486;28;20035;-67
2023/10/24 01:54:49;;;;;;;0.20;0.20;;;;;;;18.89;69.75;100201.16;5076003;28;20034;-67
2023/10/24 01:57:14;;;;;;;0.00;0.00;;;;;;;18.66;73.10;100199.72;5094964;28;20372;-66
2023/10/24 01:59:40;;;;;;;0.10;0.10;;;;;;;18.41;70.87;100200.16;5091043;28;20031;-67
2023/10/24 02:02:05;;;;;;;1.08;0.63;;;;;;;18.36;74.37;100203.06;5093022;28;20035;-67
2023/10/24 02:04:31;;;;;;;0.63;0.38;;;;;;;18.57;73.43;100201.06;5074296;28;20028;-67
2023/10/24 02:06:56;;;;;;;0.30;0.30;;;;;;;18.84;71.39;100187.28;5074819;28;20081;-67
2023/10/24 02:09:22;;;;;;;0.25;0.25;;;;;;;20.01;65.26;100185.13;5088108;28;20028;-67
2023/10/24 02:11:47;;;;;;;0.55;0.55;;;;;;;19.90;64.14;100182.25;5094366;28;20486;-67
2023/10/24 02:14:13;;;;;;;0.00;0.00;;;;;;;19.72;66.17;100184.16;5093792;28;20031;-67
2023/10/24 02:16:38;;;;;;;0.00;0.00;;;;;;;18.87;68.51;100187.09;5111267;28;20509;-67
2023/10/24 02:19:04;;;;;;;0.82;0.82;;;;;;;18.18;74.58;100193.44;5092500;28;20038;-67
2023/10/24 02:21:29;;;;;;;0.00;0.00;;;;;;;18.92;71.03;100189.56;5075006;28;20039;-67
2023/10/24 02:23:54;;;;;;;0.03;0.03;;;;;;;19.27;67.62;100184.06;5091651;28;20028;-66
2023/10/24 02:26:20;;;;;;;0.80;0.80;;;;;;;18.68;69.24;100181.13;5088284;28;20039;-67
2023/10/24 02:28:45;;;;;;;0.15;0.15;;;;;;;19.60;65.57;100178.59;5110330;28;20039;-66
2023/10/24 02:31:10;;;;;;;0.10;0.10;;;;;;;19.54;66.90;100175.50;5090740;28;20472;-66
2023/10/24 02:33:37;;;;;;;0.10;0.10;;;;;;;19.31;68.55;100175.00;5074935;28;20034;-67
2023/10/24 02:36:09;;;;;;;1.35;1.25;;;;;;;18.38;71.70;100179.16;5092821;28;20042;-66
2023/10/24 02:38:34;;;;;;;0.65;0.65;;;;;;;18.61;70.89;100181.44;5093903;28;20041;-66
2023/10/24 02:41:00;;;;;;;0.00;0.00;;;;;;;18.41;70.50;100174.56;5089870;28;20479;-67
2023/10/24 02:43:26;;;;;;;5.88;1.10;;;;;;;18.60;70.90;100178.88;5094749;28;20038;-67
2023/10/24 02:45:51;;;;;;;0.28;0.25;;;;;;;18.57;71.52;100179.03;5092434;28;20024;-67
2023/10/24 02:48:17;;;;;;;1.02;0.85;;;;;;;18.67;70.86;100182.91;5094253;28;20553;-66
2023/10/24 02:50:43;;;;;;;0.10;0.10;;;;;;;18.10;74.66;100180.63;5077355;28;20464;-66
2023/10/24 02:53:08;;;;;;;1.77;0.38;;;;;;;18.83;71.54;100177.63;5072818;28;20038;-67
2023/10/24 02:55:34;;;;;;;2.67;0.80;;;;;;;18.85;70.46;100177.53;5098868;28;20028;-67
2023/10/24 02:58:00;;;;;;;0.20;0.20;;;;;;;19.34;67.16;100177.47;5073795;28;20031;-66
2023/10/24 03:00:25;;;;;;;0.00;0.00;;;;;;;18.92;68.78;100184.25;5090931;28;20027;-66
2023/10/24 03:02:51;;;;;;;0.50;0.50;;;;;;;19.02;67.63;100182.78;5074076;28;20395;-67
2023/10/24 03:05:16;;;;;;;0.17;0.17;;;;;;;19.56;66.18;100182.38;5099460;28;20459;-67
2023/10/24 03:07:41;;;;;;;0.47;0.47;;;;;;;18.61;68.85;100185.88;5093411;28;20080;-66
2023/10/24 03:10:07;;;;;;;0.20;0.20;;;;;;;19.23;64.96;100175.41;5098455;28;20028;-67
2023/10/24 03:12:33;;;;;;;0.03;0.03;;;;;;;17.93;72.47;100192.06;5073120;28;20036;-67
2023/10/24 03:14:58;;;;;;;3.72;0.65;;;;;;;17.96;71.69;100190.09;5075435;28;20027;-67
2023/10/24 03:17:24;;;;;;;0.30;0.30;;;;;;;18.92;67.76;100190.41;5112152;28;20418;-67
2023/10/24 03:19:49;;;;;;;0.00;0.00;;;;;;;18.41;69.52;100194.88;5078480;28;20069;-67
2023/10/24 03:22:14;;;;;;;0.65;0.47;;;;;;;18.06;71.50;100195.78;5077528;28;20035;-67
2023/10/24 03:24:40;;;;;;;0.00;0.00;;;;;;;18.18;71.48;100207.53;5093836;28;20028;-67
2023/10/24 03:27:07;;;;;;;2.57;0.83;;;;;;;18.53;71.14;100198.66;5089866;28;20033;-66
2023/10/24 03:29:36;;;;;;;0.40;0.40;;;;;;;17.91;74.05;100191.25;5090929;28;20035;-67
2023/10/24 03:32:02;;;;;;;22.07;1.43;;;;;;;17.76;73.16;100199.03;5076686;28;20028;-67
2023/10/24 03:34:29;;;;;;;0.90;0.65;;;;;;;18.47;71.89;100200.69;5072109;28;20605;-66
2023/10/24 03:36:54;;;;;;;0.17;0.13;;;;;;;19.07;66.64;100199.28;5072884;28;20173;-67
2023/10/24 03:39:19;;;;;;;0.75;0.75;;;;;;;19.01;68.33;100199.63;5073397;28;20119;-67
2023/10/24 03:41:45;;;;;;;0.15;0.10;;;;;;;18.93;66.59;100207.13;5095015;28;20085;-67
2023/10/24 03:44:10;;;;;;;0.35;0.15;;;;;;;18.14;72.14;100204.16;5079705;28;20035;-67
2023/10/24 03:46:35;;;;;;;0.75;0.75;;;;;;;18.10;71.36;100201.78;5074005;28;20028;-66
2023/10/24 03:49:02;;;;;;;2.10;1.17;;;;;;;17.92;75.49;100199.13;5071969;28;20118;-67
2023/10/24 03:51:27;;;;;;;0.10;0.10;;;;;;;17.59;74.64;100206.94;5094127;28;20027;-67
2023/10/24 03:53:53;;;;;;;0.30;0.30;;;;;;;17.66;75.06;100204.84;5093220;28;20394;-66
2023/10/24 03:56:18;;;;;;;0.00;0.00;;;;;;;17.38;77.06;100214.97;5085219;28;20073;-68
2023/10/24 03:58:44;;;;;;;0.10;0.10;;;;;;;17.70;73.84;100209.91;5108949;28;20043;-66
2023/10/24 04:01:09;;;;;;;0.00;0.00;;;;;;;18.10;74.44;100213.19;5092617;28;20035;-67
2023/10/24 04:03:35;;;;;;;0.00;0.00;;;;;;;18.75;72.72;100203.66;5073416;28;20494;-66
2023/10/24 04:06:00;;;;;;;2.67;0.68;;;;;;;17.94;75.21;100201.69;5105553;28;20493;-66
2023/10/24 04:08:26;;;;;;;0.35;0.32;;;;;;;18.13;71.20;100199.84;5102244;28;20031;-67
2023/10/24 04:10:51;;;;;;;0.65;0.65;;;;;;;18.40;70.95;100201.97;5074977;28;20498;-67
2023/10/24 04:13:16;;;;;;;0.08;0.08;;;;;;;18.61;72.72;100201.75;5095493;28;20024;-67
2023/10/24 04:15:42;;;;;;;0.00;0.00;;;;;;;17.72;74.98;100208.03;5090489;28;20032;-67
2023/10/24 04:18:07;;;;;;;0.32;0.32;;;;;;;18.59;71.53;100196.56;5089206;28;20036;-66
2023/10/24 04:20:32;;;;;;;0.00;0.00;;;;;;;18.16;72.49;100197.94;5091214;28;20048;-66
2023/10/24 04:23:03;;;;;;;1.38;0.73;;;;;;;19.08;68.90;100195.72;5070924;28;20490;-67
2023/10/24 04:25:30;;;;;;;0.00;0.00;;;;;;;18.57;69.39;100194.91;5072104;28;20035;-66
2023/10/24 04:27:56;;;;;;;0.50;0.45;;;;;;;18.37;71.27;100191.56;5071641;28;20039;-67
2023/10/24 04:30:21;;;;;;;0.95;0.63;;;;;;;18.58;70.25;100186.06;5072290;28;20024;-66
2023/10/24 04:32:47;;;;;;;1.23;0.55;;;;;;;17.95;74.36;100187.53;5072617;28;20121;-67
2023/10/24 04:35:13;;;;;;;0.63;0.20;;;;;;;18.55;69.31;100191.53;5071600;28;20399;-66
2023/10/24 04:37:39;;;;;;;0.00;0.00;;;;;;;18.25;72.45;100178.97;5083949;28;20497;-66
2023/10/24 04:40:05;;;;;;;1.60;0.63;;;;;;;18.38;71.42;100180.03;5074754;28;20028;-67
2023/10/24 04:42:30;;;;;;;0.00;0.00;;;;;;;17.90;73.56;100177.19;5072782;28;20044;-67
2023/10/24 04:44:55;;;;;;;0.38;0.38;;;;;;;17.51;77.46;100174.75;5073524;28;20032;-66
2023/10/24 04:47:21;;;;;;;0.30;0.30;;;;;;;17.96;75.60;100165.47;5089339;28;20031;-66
2023/10/24 04:49:46;;;;;;;0.63;0.63;;;;;;;17.88;74.84;100170.25;5093722;28;20034;-66
2023/10/24 04:52:12;;;;;;;0.30;0.30;;;;;;;17.34;77.75;100179.06;5094571;28;20563;-66
2023/10/24 04:54:38;;;;;;;0.30;0.30;;;;;;;17.95;74.49;100166.41;5096598;28;20027;-66
2023/10/24 04:57:03;;;;;;;0.50;0.13;;;;;;;18.00;73.85;100169.66;5096139;28;20034;-67
2023/10/24 04:59:29;;;;;;;1.23;1.13;;;;;;;18.82;69.25;100173.25;5093127;28;20019;-66
2023/10/24 05:01:54;;;;;;;0.73;0.60;;;;;;;17.72;73.79;100159.59;5113946;28;20032;-66
2023/10/24 05:04:20;;;;;;;0.13;0.13;;;;;;;17.95;70.87;100161.09;5096770;28;20054;-66
2023/10/24 05:06:45;;;;;;;0.10;0.10;;;;;;;18.94;68.58;100156.72;5092570;28;20058;-66
2023/10/24 05:09:11;;;;;;;0.32;0.32;;;;;;;18.74;66.89;100149.88;5078152;28;20391;-67
2023/10/24 05:11:39;;;;;;;0.00;0.00;;;;;;;18.45;70.37;100144.38;5093012;28;20111;-66
2023/10/24 05:14:04;;;;;;;0.20;0.20;;;;;;;18.28;69.56;100139.13;5093021;28;20027;-67
2023/10/24 05:16:30;;;;;;;0.22;0.22;;;;;;;17.75;72.73;100144.44;5089175;28;20360;-67
2023/10/24 05:18:55;;;;;;;0.33;0.30;;;;;;;17.98;72.38;100147.72;5092469;28;20509;-67
2023/10/24 05:21:20;;;;;;;5.80;2.10;;;;;;;18.24;68.46;100140.22;5089370;28;20451;-67
2023/10/24 05:23:46;;;;;;;0.00;0.00;;;;;;;18.76;68.01;100136.53;5075684;28;20450;-66
2023/10/24 05:26:11;;;;;;;1.20;1.13;;;;;;;19.18;66.11;100131.59;5074787;28;20367;-67
2023/10/24 05:28:36;;;;;;;0.43;0.43;;;;;;;17.46;72.42;100137.97;5086487;28;20500;-66
2023/10/24 05:31:07;;;;;;;0.00;0.00;;;;;;;18.33;70.10;100139.75;5090690;28;20028;-67
2023/10/24 05:33:34;;;;;;;3.60;0.33;;;;;;;18.10;69.00;100130.38;5101217;28;20023;-67
2023/10/24 05:35:59;;;;;;;3.20;1.30;;;;;;;18.58;68.71;100135.78;5113554;28;20114;-67
2023/10/24 05:38:24;;;;;;;0.75;0.75;;;;;;;18.31;67.91;100133.66;5094312;28;20158;-67
2023/10/24 05:40:50;;;;;;;0.00;0.00;;;;;;;17.80;71.29;100141.56;5092558;28;20020;-68
2023/10/24 05:43:15;;;;;;;0.00;0.00;;;;;;;18.07;72.41;100136.66;5089098;28;20048;-68
2023/10/24 05:45:40;;;;;;;1.55;1.13;;;;;;;18.95;67.29;100128.47;5095821;28;20020;-68
2023/10/24 05:48:06;;;;;;;0.17;0.17;;;;;;;18.86;67.76;100142.19;5094441;28;20468;-68
2023/10/24 05:50:33;;;;;;;1.93;0.87;;;;;;;18.57;67.24;100149.94;5083058;28;20129;-69
2023/10/24 05:52:58;;;;;;;0.10;0.10;;;;;;;18.52;67.40;100151.97;5106249;28;20024;-68
2023/10/24 05:55:23;;;;;;;0.10;0.10;;;;;;;17.65;71.23;100153.75;5076608;28;20072;-68
2023/10/24 05:57:49;;;;;;;0.00;0.00;;;;;;;18.35;69.06;100148.44;5083940;28;20032;-68
2023/10/24 06:00:14;;;;;;;0.00;0.00;;;;;;;18.05;70.40;100157.06;5078507;28;20030;-68
2023/10/24 06:02:40;;;;;;;0.10;0.10;;;;;;;18.40;68.84;100142.91;5088720;28;20028;-68
2023/10/24 06:05:06;;;;;;;0.30;0.30;;;;;;;17.61;70.72;100142.50;5081828;28;20064;-68
2023/10/24 06:07:31;;;;;;;0.13;0.13;;;;;;;18.69;68.89;100143.13;5103734;28;20036;-68
2023/10/24 06:09:56;;;;;;;0.13;0.13;;;;;;;17.99;69.95;100160.00;5091637;28;20577;-68
2023/10/24 06:12:22;;;;;;;0.13;0.13;;;;;;;18.16;68.46;100158.28;5093108;28;20024;-66
2023/10/24 06:14:47;;;;;;;5.47;1.65;;;;;;;18.19;67.77;100152.81;5074704;28;20538;-67
2023/10/24 06:17:17;;;;;;;0.30;0.20;;;;;;;18.02;68.96;100167.78;5091823;28;20143;-67
2023/10/24 06:19:43;;;;;;;0.10;0.10;;;;;;;18.77;67.47;100168.22;5076347;28;20020;-66
2023/10/24 06:22:08;;;;;;;1.23;1.13;;;;;;;17.78;69.55;100170.72;5074215;28;20035;-67
2023/10/24 06:24:34;;;;;;;1.93;0.77;;;;;;;17.94;70.98;100169.97;5072912;28;20024;-66
2023/10/24 06:27:00;;;;;;;1.08;0.50;;;;;;;18.14;68.71;100172.44;5091244;28;20028;-67
2023/10/24 06:29:25;;;;;;;0.00;0.00;;;;;;;18.22;68.13;100165.91;5083287;28;20030;-66
2023/10/24 06:31:50;;;;;;;0.00;0.00;;;;;;;18.03;69.77;100174.78;5080764;28;20023;-66
2023/10/24 06:34:16;;;;;;;0.35;0.35;;;;;;;17.44;72.56;100175.03;5111225;28;20024;-67
2023/10/24 06:36:41;;;;;;;0.97;0.20;;;;;;;18.65;68.45;100176.84;5080137;28;20024;-67
2023/10/24 06:39:07;;;;;;;0.80;0.77;;;;;;;18.03;70.01;100174.78;5106469;28;20024;-67
2023/10/24 06:41:33;;;;;;;0.13;0.13;;;;;;;17.98;69.29;100171.53;5094390;28;20048;-67
2023/10/24 06:43:59;;;;;;;0.35;0.20;;;;;;;17.74;70.92;100179.75;5089856;28;20446;-66
2023/10/24 06:46:24;;;;;;;0.00;0.00;;;;;;;18.42;69.12;100173.66;5094649;28;20165;-67
2023/10/24 06:48:50;;;;;;;0.00;0.00;;;;;;;18.28;69.44;100181.44;5091659;28;20142;-67
2023/10/24 06:51:16;;;;;;;0.20;0.20;;;;;;;17.15;72.74;100186.19;5091550;28;20406;-66
2023/10/24 06:53:41;;;;;;;0.20;0.20;;;;;;;16.88;75.17;100199.69;5074036;28;20031;-66
2023/10/24 06:56:07;;;;;;;0.00;0.00;;;;;;;17.37;74.11;100200.03;5073449;28;20020;-67
2023/10/24 06:58:32;;;;;;;0.93;0.73;;;;;;;17.49;73.08;100205.66;5093555;28;20466;-66
2023/10/24 07:00:57;;;;;;;0.00;0.00;;;;;;;18.00;71.41;100204.03;5077030;28;20736;-66
2023/10/24 07:03:23;;;;;;;0.00;0.00;;;;;;;17.05;74.61;100217.41;5079754;28;20019;-67
2023/10/24 07:05:52;;;;;;;0.20;0.20;;;;;;;18.11;69.06;100201.69;5108037;28;20026;-67
2023/10/24 07:08:19;;;;;;;0.00;0.00;;;;;;;18.07;71.12;100202.78;5076772;28;20019;-67
2023/10/24 07:10:45;;;;;;;0.00;0.00;;;;;;;17.20;73.78;100200.00;5111649;28;20028;-66
2023/10/24 07:13:11;;;;;;;3.13;0.60;;;;;;;17.16;75.95;100199.31;5080533;28;20073;-67
2023/10/24 07:15:37;;;;;;;0.43;0.43;;;;;;;16.87;76.28;100190.06;5073625;28;20024;-67
2023/10/24 07:18:02;;;;;;;0.35;0.35;;;;;;;18.12;72.21;100187.53;5075090;28;20043;-67
2023/10/24 07:20:28;;;;;;;0.00;0.00;;;;;;;17.59;73.55;100181.34;5093281;28;20023;-67
2023/10/24 07:22:53;;;;;;;0.17;0.17;;;;;;;17.84;71.94;100179.28;5107198;28;20098;-67
2023/10/24 07:25:18;;;;;;;0.00;0.00;;;;;;;17.54;73.52;100182.50;5073767;28;20152;-67
2023/10/24 07:27:44;;;;;;;0.77;0.77;;;;;;;17.69;72.81;100181.75;5072642;28;20391;-67
2023/10/24 07:30:10;;;;;;;0.07;0.07;;;;;;;18.00;69.75;100184.66;5090360;28;20060;-67
2023/10/24 07:32:35;;;;;;;3.00;1.70;;;;;;;17.94;71.09;100186.69;5093715;28;20032;-67
2023/10/24 07:35:01;;;;;;;0.00;0.00;;;;;;;17.93;68.59;100189.44;5089858;27;20027;-67
2023/10/24 07:37:28;;;;;;;0.10;0.10;;;;;;;17.67;72.20;100188.03;5072142;28;20436;-66
2023/10/24 07:39:54;;;;;;;4.80;2.27;;;;;;;17.99;70.97;100186.44;5072090;28;20058;-67
2023/10/24 07:42:19;;;;;;;0.00;0.00;;;;;;;18.05;70.33;100187.94;5078310;28;20445;-67
2023/10/24 07:44:44;;;;;;;0.10;0.10;;;;;;;18.14;70.35;100198.88;5082986;28;20156;-67
2023/10/24 07:47:10;;;;;;;0.08;0.08;;;;;;;18.46;69.86;100180.50;5110197;28;20023;-67
2023/10/24 07:49:35;;;;;;;0.10;0.10;;;;;;;17.70;73.53;100193.19;5111057;28;20517;-67
2023/10/24 07:52:01;;;;;;;0.00;0.00;;;;;;;17.15;74.03;100186.19;5084563;28;20549;-67
2023/10/24 07:54:29;;;;;;;0.50;0.43;;;;;;;17.97;72.01;100172.47;5074461;28;20028;-67
2023/10/24 07:56:54;;;;;;;0.08;0.08;;;;;;;17.55;72.23;100173.66;5088805;28;20032;-67
2023/10/24 07:59:19;;;;;;;2.60;0.77;;;;;;;17.69;72.43;100179.09;5095162;28;20064;-67
2023/10/24 08:01:45;;;;;;;0.20;0.20;;;;;;;18.19;68.04;100171.34;5099473;28;20497;-67
2023/10/24 08:04:10;;;;;;;0.00;0.00;;;;;;;18.14;67.23;100177.72;5075573;28;20437;-66
2023/10/24 08:06:35;;;;;;;0.20;0.20;;;;;;;17.54;70.33;100177.22;5072896;28;20047;-67
2023/10/24 08:09:01;;;;;;;1.55;1.00;;;;;;;17.80;69.46;100168.88;5071990;28;20437;-67
2023/10/24 08:11:26;;;;;;;0.20;0.20;;;;;;;18.21;69.71;100172.13;5092698;28;20054;-67
2023/10/24 08:13:51;;;;;;;0.00;0.00;;;;;;;17.57;70.20;100183.22;5096562;28;20028;-67
2023/10/24 08:16:17;;;;;;;1.92;0.47;;;;;;;18.32;66.99;100180.34;5090870;28;20020;-67
2023/10/24 08:18:44;;;;;;;0.00;0.00;;;;;;;19.36;63.43;100175.59;5097313;28;20028;-67
2023/10/24 08:21:10;;;;;;;1.45;0.52;;;;;;;18.28;68.75;100168.22;5098527;28;20016;-67
2023/10/24 08:23:35;;;;;;;0.28;0.25;;;;;;;18.30;67.69;100167.19;5101643;28;20547;-67
2023/10/24 08:26:01;;;;;;;0.90;0.90;;;;;;;17.48;70.76;100173.09;5075891;28;20052;-67
2023/10/24 08:28:26;;;;;;;0.75;0.75;;;;;;;17.94;69.22;100164.69;5080739;28;20019;-67
2023/10/24 08:30:54;;;;;;;0.00;0.00;;;;;;;18.21;68.26;100172.13;5095946;28;20110;-67
2023/10/24 08:33:20;;;;;;;0.10;0.10;;;;;;;17.68;70.51;100174.78;5063044;28;20027;-67
2023/10/24 08:35:46;;;;;;;0.45;0.45;;;;;;;17.52;70.84;100168.53;5098938;28;20046;-67
2023/10/24 08:38:11;;;;;;;0.88;0.88;;;;;;;17.23;71.20;100173.47;5077977;28;20036;-67
2023/10/24 08:40:37;;;;;;;0.10;0.10;;;;;;;17.61;71.54;100171.56;5075703;28;20020;-66
2023/10/24 08:43:03;;;;;;;0.73;0.70;;;;;;;17.43;71.51;100169.84;5094948;28;20055;-66
2023/10/24 08:45:30;;;;;;;0.38;0.38;;;;;;;18.27;68.60;100153.28;5074852;28;20051;-67
2023/10/24 08:47:57;;;;;;;0.15;0.10;;;;;;;18.04;68.56;100158.00;5091364;28;20024;-67
2023/10/24 08:50:22;;;;;;;0.10;0.10;;;;;;;17.71;70.01;100161.41;5093595;28;20035;-67
2023/10/24 08:52:47;;;;;;;0.00;0.00;;;;;;;18.16;69.26;100163.56;5076102;28;20032;-67
2023/10/24 08:55:13;;;;;;;0.00;0.00;;;;;;;18.02;68.63;100177.50;5083843;28;20031;-67
2023/10/24 08:57:40;;;;;;;0.55;0.55;;;;;;;17.04;71.73;100194.59;5095356;28;20022;-66
2023/10/24 09:00:08;;;;;;;0.00;0.00;;;;;;;18.11;69.87;100177.03;5095618;28;20031;-66
2023/10/24 09:02:35;;;;;;;0.80;0.80;;;;;;;18.23;68.74;100179.06;5093832;28;20420;-67
2023/10/24 09:05:01;;;;;;;1.15;0.80;;;;;;;17.85;68.42;100173.06;5112693;28;20032;-67
2023/10/24 09:07:26;;;;;;;1.45;0.47;;;;;;;18.02;69.30;100183.66;5096242;28;20030;-67
2023/10/24 09:09:52;;;;;;;0.00;0.00;;;;;;;18.64;64.99;100185.69;5094902;28;20525;-67
2023/10/24 09:12:17;;;;;;;0.00;0.00;;;;;;;18.65;66.24;100198.00;5095116;28;20031;-67
2023/10/24 09:14:47;;;;;;;0.20;0.20;;;;;;;18.67;66.05;100198.81;5077668;28;20077;-67
2023/10/24 09:17:17;;;;;;;0.00;0.00;;;;;;;18.77;65.69;100196.50;5075158;28;20494;-67
2023/10/24 09:19:43;;;;;;;0.03;0.03;;;;;;;19.44;61.98;100196.34;5074474;28;20471;-66
2023/10/24 09:22:09;;;;;;;0.98;0.22;;;;;;;17.69;67.63;100207.31;5075141;28;20024;-67
2023/10/24 09:24:35;;;;;;;0.10;0.10;;;;;;;17.74;67.78;100206.16;5088793;28;20027;-66
2023/10/24 09:27:01;;;;;;;0.00;0.00;;;;;;;17.38;69.22;100203.53;5091570;28;20031;-67
2023/10/24 09:29:27;;;;;;;0.57;0.35;;;;;;;18.19;66.53;100195.16;5082702;28;20031;-67
2023/10/24 09:31:54;;;;;;;0.05;0.05;;;;;;;18.18;66.29;100204.03;5079983;28;20110;-67
2023/10/24 09:34:20;;;;;;;0.00;0.00;;;;;;;19.25;63.17;100212.44;5111327;28;20023;-67
2023/10/24 09:36:46;;;;;;;0.10;0.10;;;;;;;18.09;67.73;100206.22;5084070;28;20043;-67
2023/10/24 09:39:13;;;;;;;1.60;1.20;;;;;;;17.21;71.26;100217.56;5092440;28;20350;-66
2023/10/24 09:41:43;;;;;;;10.68;6.47;;;;;;;17.70;69.80;100209.91;5087701;28;20039;-67
2023/10/24 09:44:09;;;;;;;11.05;6.38;;;;;;;18.08;68.40;100212.44;5074721;28;20030;-67
2023/10/24 09:46:36;;;;;;;13.05;7.97;;;;;;;17.81;69.19;100218.13;5092289;28;20020;-67
2023/10/24 09:49:03;;;;;;;11.38;6.72;;;;;;;18.03;67.95;100205.66;5074072;28;20495;-67
2023/10/24 09:51:30;;;;;;;14.40;7.45;;;;;;;17.72;69.24;100202.75;5087695;28;20023;-67
2023/10/24 09:53:56;;;;;;;12.98;7.75;;;;;;;17.87;69.37;100202.91;5094024;28;20016;-67
2023/10/24 09:56:23;;;;;;;17.55;8.32;;;;;;;18.27;65.89;100190.31;5109776;28;20500;-67
2023/10/24 09:58:49;;;;;;;16.02;8.82;;;;;;;18.20;68.25;100187.13;5075178;28;20483;-67
2023/10/24 10:01:16;;;;;;;14.70;7.78;;;;;;;18.61;65.18;100201.75;5093655;28;20522;-67
2023/10/24 10:03:43;;;;;;;15.85;8.40;;;;;;;18.48;64.43;100197.13;5074905;28;20036;-67
2023/10/24 10:06:11;;;;;;;14.15;7.85;;;;;;;18.35;66.04;100190.75;5099410;28;20103;-67
2023/10/24 10:08:40;;;;;;;19.17;9.10;;;;;;;18.50;67.22;100193.53;5074822;28;20161;-67
2023/10/24 10:11:05;;;;;;;18.10;8.30;;;;;;;19.61;61.12;100198.03;5075960;28;20075;-67
2023/10/24 10:13:38;;;;;;;15.45;9.13;;;;;;;18.32;65.92;100198.88;5105309;28;20439;-67
2023/10/24 10:16:12;;;;;;;14.55;8.70;;;;;;;18.66;65.66;100207.66;5092504;28;20866;-67
2023/10/24 10:18:56;;;;;;;16.02;8.75;;;;;;;18.24;67.81;100203.69;5082900;28;20031;-66
2023/10/24 10:21:28;;;;;;;18.33;10.25;;;;;;;17.81;68.15;100199.63;5085390;28;20080;-69
2023/10/24 10:24:20;;;;;;;14.70;9.15;;;;;;;18.84;64.86;100197.03;5094724;28;20045;-67
2023/10/24 10:27:01;;;;;;;13.70;8.70;;;;;;;18.17;68.67;100197.03;5077424;28;20024;-67
2023/10/24 10:29:56;;;;;;;14.40;8.60;;;;;;;18.14;68.05;100190.94;5073005;28;20043;-67
2023/10/24 10:32:55;;;;;;;13.82;9.07;;;;;;;17.84;68.04;100206.56;5073613;28;20024;-67
2023/10/24 10:35:21;;;;;;;12.95;8.35;;;;;;;18.33;65.90;100205.88;5006607;28;20034;-67
2023/10/24 10:38:04;;;;;;;14.35;8.82;;;;;;;17.76;67.89;100193.75;5076778;28;20092;-67
2023/10/24 10:40:30;;;;;;;14.13;8.55;;;;;;;18.62;65.90;100192.88;5091467;28;20080;-67
2023/10/24 10:42:55;;;;;;;14.73;8.80;;;;;;;18.78;64.87;100188.47;5073400;28;20470;-67
2023/10/24 10:45:24;;;;;;;15.18;8.23;;;;;;;17.99;67.19;100189.09;5072088;28;20031;-67
2023/10/24 10:47:52;;;;;;;12.48;7.72;;;;;;;17.21;70.27;100196.44;5089278;28;20033;-67
2023/10/24 10:50:31;;;;;;;9.43;6.63;;;;;;;19.06;63.05;100191.44;5075546;28;20031;-67
2023/10/24 10:53:31;;;;;;;10.38;6.93;;;;;;;18.17;67.89;100191.72;5071602;28;20032;-67
2023/10/24 10:56:06;;;;;;;12.50;6.85;;;;;;;18.01;71.10;100191.66;5091178;28;20028;-67
2023/10/24 10:58:40;;;;;;;8.88;6.25;;;;;;;18.62;67.74;100188.44;5072132;28;20699;-67
2023/10/24 11:01:17;;;;;;;9.80;5.95;;;;;;;18.58;66.10;100189.53;5094431;28;20103;-67
2023/10/24 11:03:44;;;;;;;9.95;6.18;;;;;;;19.03;64.63;100191.56;5073593;28;20067;-67
2023/10/24 11:06:14;;;;;;;9.23;5.95;;;;;;;18.22;67.59;100189.72;5091881;28;20026;-67
2023/10/24 11:08:43;;;;;;;7.10;4.80;;;;;;;18.76;65.59;100185.03;5088397;28;20023;-67
2023/10/24 11:11:10;;;;;;;8.88;4.00;;;;;;;16.89;73.63;100190.91;5101102;28;20027;-67
2023/10/24 11:13:43;;;;;;;6.72;4.55;;;;;;;17.80;70.72;100176.81;5112073;28;20042;-68
2023/10/24 11:16:12;;;;;;;5.85;4.28;;;;;;;18.52;66.83;100181.94;5098112;28;20035;-68
2023/10/24 11:18:39;;;;;;;5.82;3.35;;;;;;;18.45;67.58;100180.53;5092480;28;20024;-68
2023/10/24 11:21:08;;;;;;;6.10;3.88;;;;;;;17.27;72.17;100175.03;5097863;28;20030;-68